createdAt,value
2019-01-09T00:00:09.743Z,1001.93
2019-01-09T00:01:09.709Z,1001.95
2019-01-09T00:02:09.669Z,1001.89
2019-01-09T00:03:09.634Z,1001.96
2019-01-09T00:04:09.598Z,1001.97
2019-01-09T00:05:09.563Z,1001.99
2019-01-09T00:06:09.531Z,1002.05
2019-01-09T00:07:09.493Z,1002.04
2019-01-09T00:08:09.454Z,1002.03
2019-01-09T00:09:09.420Z,1002.00
2019-01-09T00:10:09.386Z,1002.03
2019-01-09T00:11:09.346Z,1001.99
2019-01-09T00:12:09.312Z,1002.04
2019-01-09T00:13:09.275Z,1002.06
2019-01-09T00:14:09.242Z,1002.09
2019-01-09T00:15:09.205Z,1002.10
2019-01-09T00:16:09.168Z,1002.17
2019-01-09T00:17:09.133Z,1002.10
2019-01-09T00:18:09.102Z,1002.09
2019-01-09T00:19:09.059Z,1002.10
2019-01-09T00:20:09.024Z,1002.21
2019-01-09T00:21:08.990Z,1002.18
2019-01-09T00:22:08.954Z,1002.19
2019-01-09T00:23:08.920Z,1002.23
2019-01-09T00:24:08.881Z,1002.21
2019-01-09T00:25:08.844Z,1002.25
2019-01-09T00:26:08.812Z,1002.30
2019-01-09T00:27:08.774Z,1002.29
2019-01-09T00:28:08.737Z,1002.26
2019-01-09T00:29:08.702Z,1002.24
2019-01-09T00:30:08.667Z,1002.28
2019-01-09T00:31:08.629Z,1002.26
2019-01-09T00:32:08.593Z,1002.31
2019-01-09T00:33:08.559Z,1002.34
2019-01-09T00:34:08.522Z,1002.37
2019-01-09T00:35:08.486Z,1002.33
2019-01-09T00:36:08.450Z,1002.38
2019-01-09T00:37:08.415Z,1002.37
2019-01-09T00:38:08.378Z,1002.31
2019-01-09T00:39:08.344Z,1002.40
2019-01-09T00:40:08.309Z,1002.39
2019-01-09T00:41:08.271Z,1002.46
2019-01-09T00:42:08.237Z,1002.40
2019-01-09T00:43:08.198Z,1002.47
2019-01-09T00:44:08.163Z,1002.46
2019-01-09T00:45:08.126Z,1002.45
2019-01-09T00:46:08.090Z,1002.47
2019-01-09T00:47:08.057Z,1002.45
2019-01-09T00:48:08.019Z,1002.43
2019-01-09T00:49:07.983Z,1002.50
2019-01-09T00:50:07.951Z,1002.55
2019-01-09T00:51:07.915Z,1002.54
2019-01-09T00:52:07.876Z,1002.52
2019-01-09T00:53:07.841Z,1002.55
2019-01-09T00:54:07.804Z,1002.59
2019-01-09T00:55:07.767Z,1002.61
2019-01-09T00:56:07.732Z,1002.58
2019-01-09T00:57:07.697Z,1002.61
2019-01-09T00:58:07.660Z,1002.62
2019-01-09T00:59:07.623Z,1002.56
2019-01-09T01:00:07.589Z,1002.62
2019-01-09T01:01:07.552Z,1002.66
2019-01-09T01:02:07.518Z,1002.66
2019-01-09T01:03:07.481Z,1002.66
2019-01-09T01:04:07.445Z,1002.63
2019-01-09T01:05:07.410Z,1002.73
2019-01-09T01:06:07.373Z,1002.69
2019-01-09T01:07:07.339Z,1002.70
2019-01-09T01:08:07.300Z,1002.67
2019-01-09T01:09:07.265Z,1002.70
2019-01-09T01:10:07.230Z,1002.73
2019-01-09T01:11:07.194Z,1002.76
2019-01-09T01:12:07.238Z,1002.82
2019-01-09T01:13:07.121Z,1002.80
2019-01-09T01:14:07.087Z,1002.82
2019-01-09T01:15:07.049Z,1002.89
2019-01-09T01:16:07.014Z,1002.94
2019-01-09T01:17:06.983Z,1002.92
2019-01-09T01:18:06.943Z,1002.95
2019-01-09T01:19:06.905Z,1002.73
2019-01-09T01:20:06.870Z,1002.86
2019-01-09T01:21:06.841Z,1002.93
2019-01-09T01:22:06.800Z,1002.95
2019-01-09T01:23:06.762Z,1002.95
2019-01-09T01:24:06.729Z,1002.96
2019-01-09T01:25:06.690Z,1002.95
2019-01-09T01:26:06.664Z,1002.97
2019-01-09T01:27:06.620Z,1003.01
2019-01-09T01:28:06.583Z,1003.01
2019-01-09T01:29:06.547Z,1003.04
2019-01-09T01:30:06.513Z,1003.05
2019-01-09T01:31:06.475Z,1003.00
2019-01-09T01:32:06.441Z,1003.06
2019-01-09T01:33:06.405Z,1003.11
2019-01-09T01:34:06.368Z,1003.18
2019-01-09T01:35:06.332Z,1003.18
2019-01-09T01:36:06.296Z,1003.13
2019-01-09T01:37:06.260Z,1003.26
2019-01-09T01:38:06.226Z,1003.24
2019-01-09T01:39:06.192Z,1003.14
2019-01-09T01:40:06.153Z,1003.24
2019-01-09T01:41:06.118Z,1003.24
2019-01-09T01:42:06.082Z,1003.25
2019-01-09T01:43:06.045Z,1003.21
2019-01-09T01:44:06.009Z,1003.31
2019-01-09T01:45:05.973Z,1003.35
2019-01-09T01:46:05.938Z,1003.29
2019-01-09T01:47:05.901Z,1003.23
2019-01-09T01:48:05.867Z,1003.32
2019-01-09T01:49:05.831Z,1003.32
2019-01-09T01:50:05.795Z,1003.36
2019-01-09T01:51:05.758Z,1003.43
2019-01-09T01:52:05.723Z,1003.47
2019-01-09T01:53:05.688Z,1003.45
2019-01-09T01:54:05.651Z,1003.37
2019-01-09T01:55:05.615Z,1003.45
2019-01-09T01:56:05.729Z,1003.51
2019-01-09T01:57:05.544Z,1003.50
2019-01-09T01:58:05.510Z,1003.49
2019-01-09T01:59:05.472Z,1003.51
2019-01-09T02:00:05.435Z,1003.56
2019-01-09T02:01:05.402Z,1003.59
2019-01-09T02:02:05.365Z,1003.58
2019-01-09T02:03:05.329Z,1003.62
2019-01-09T02:04:05.293Z,1003.53
2019-01-09T02:05:05.257Z,1003.61
2019-01-09T02:06:05.223Z,1003.59
2019-01-09T02:07:05.186Z,1003.60
2019-01-09T02:08:05.150Z,1003.66
2019-01-09T02:09:05.116Z,1003.64
2019-01-09T02:10:05.081Z,1003.66
2019-01-09T02:11:05.042Z,1003.61
2019-01-09T02:12:05.007Z,1003.66
2019-01-09T02:13:04.972Z,1003.68
2019-01-09T02:14:04.935Z,1003.65
2019-01-09T02:15:04.900Z,1003.61
2019-01-09T02:16:04.863Z,1003.76
2019-01-09T02:17:04.827Z,1003.80
2019-01-09T02:18:04.791Z,1003.70
2019-01-09T02:19:04.765Z,1003.82
2019-01-09T02:20:04.720Z,1003.84
2019-01-09T02:21:04.686Z,1003.84
2019-01-09T02:22:04.647Z,1003.83
2019-01-09T02:23:04.612Z,1003.93
2019-01-09T02:24:04.578Z,1003.92
2019-01-09T02:25:04.541Z,1003.91
2019-01-09T02:26:04.506Z,1003.87
2019-01-09T02:27:04.473Z,1003.87
2019-01-09T02:28:04.435Z,1003.93
2019-01-09T02:29:04.398Z,1003.89
2019-01-09T02:30:04.364Z,1003.88
2019-01-09T02:31:04.325Z,1004.00
2019-01-09T02:32:04.289Z,1004.04
2019-01-09T02:33:04.254Z,1003.98
2019-01-09T02:34:04.219Z,1004.02
2019-01-09T02:35:04.185Z,1004.01
2019-01-09T02:36:13.092Z,1004.04
2019-01-09T02:37:04.112Z,1004.01
2019-01-09T02:38:04.087Z,1004.08
2019-01-09T02:39:04.037Z,1004.18
2019-01-09T02:40:04.005Z,1004.10
2019-01-09T02:41:03.973Z,1004.15
2019-01-09T02:42:03.932Z,1004.13
2019-01-09T02:43:03.897Z,1004.17
2019-01-09T02:44:03.859Z,1004.15
2019-01-09T02:45:03.823Z,1004.20
2019-01-09T02:46:03.788Z,1004.20
2019-01-09T02:47:03.751Z,1004.16
2019-01-09T02:48:03.715Z,1004.16
2019-01-09T02:49:03.687Z,1004.22
2019-01-09T02:50:03.647Z,1004.17
2019-01-09T02:51:03.608Z,1004.19
2019-01-09T02:52:03.571Z,1004.15
2019-01-09T02:53:03.543Z,1004.25
2019-01-09T02:54:03.503Z,1004.21
2019-01-09T02:55:03.465Z,1004.22
2019-01-09T02:56:03.429Z,1004.21
2019-01-09T02:57:03.393Z,1004.20
2019-01-09T02:58:03.360Z,1004.18
2019-01-09T02:59:03.328Z,1004.26
2019-01-09T03:00:03.285Z,1004.30
2019-01-09T03:01:03.250Z,1004.24
2019-01-09T03:02:03.212Z,1004.28
2019-01-09T03:03:03.176Z,1004.32
2019-01-09T03:04:03.140Z,1004.31
2019-01-09T03:05:03.106Z,1004.31
2019-01-09T03:06:03.071Z,1004.34
2019-01-09T03:07:03.032Z,1004.31
2019-01-09T03:08:02.998Z,1004.37
2019-01-09T03:09:02.961Z,1004.33
2019-01-09T03:10:02.928Z,1004.31
2019-01-09T03:11:02.973Z,1004.35
2019-01-09T03:12:02.855Z,1004.27
2019-01-09T03:13:02.819Z,1004.40
2019-01-09T03:14:02.783Z,1004.36
2019-01-09T03:15:02.746Z,1004.34
2019-01-09T03:16:02.715Z,1004.37
2019-01-09T03:17:02.674Z,1004.45
2019-01-09T03:18:02.646Z,1004.38
2019-01-09T03:19:02.605Z,1004.43
2019-01-09T03:20:02.574Z,1004.42
2019-01-09T03:21:02.534Z,1004.45
2019-01-09T03:22:02.494Z,1004.51
2019-01-09T03:23:02.461Z,1004.43
2019-01-09T03:24:02.424Z,1004.50
2019-01-09T03:25:02.386Z,1004.58
2019-01-09T03:26:02.351Z,1004.52
2019-01-09T03:27:02.314Z,1004.62
2019-01-09T03:28:02.277Z,1004.58
2019-01-09T03:29:02.244Z,1004.56
2019-01-09T03:30:02.209Z,1004.63
2019-01-09T03:31:02.172Z,1004.62
2019-01-09T03:32:02.135Z,1004.63
2019-01-09T03:33:02.101Z,1004.68
2019-01-09T03:34:02.064Z,1004.67
2019-01-09T03:35:02.027Z,1004.62
2019-01-09T03:36:01.992Z,1004.65
2019-01-09T03:37:01.956Z,1004.66
2019-01-09T03:38:01.921Z,1004.62
2019-01-09T03:39:01.886Z,1004.68
2019-01-09T03:40:01.847Z,1004.72
2019-01-09T03:41:01.812Z,1004.65
2019-01-09T03:42:01.784Z,1004.69
2019-01-09T03:43:01.739Z,1004.59
2019-01-09T03:44:01.703Z,1004.66
2019-01-09T03:45:01.681Z,1004.63
2019-01-09T03:46:01.635Z,1004.65
2019-01-09T03:47:01.596Z,1004.67
2019-01-09T03:48:01.562Z,1004.64
2019-01-09T03:49:01.523Z,1004.74
2019-01-09T03:50:01.492Z,1004.62
2019-01-09T03:51:01.452Z,1004.65
2019-01-09T03:52:01.424Z,1004.54
2019-01-09T03:53:01.381Z,1004.58
2019-01-09T03:54:01.343Z,1004.59
2019-01-09T03:55:01.306Z,1004.58
2019-01-09T03:56:01.271Z,1004.59
2019-01-09T03:57:01.237Z,1004.57
2019-01-09T03:58:01.201Z,1004.54
2019-01-09T03:59:01.164Z,1004.58
2019-01-09T04:00:01.127Z,1004.59
2019-01-09T04:01:01.091Z,1004.59
2019-01-09T04:02:01.056Z,1004.57
2019-01-09T04:03:01.019Z,1004.62
2019-01-09T04:04:00.983Z,1004.61
2019-01-09T04:05:00.948Z,1004.61
2019-01-09T04:06:00.911Z,1004.63
2019-01-09T04:07:00.879Z,1004.62
2019-01-09T04:08:00.842Z,1004.62
2019-01-09T04:09:00.803Z,1004.66
2019-01-09T04:10:00.768Z,1004.63
2019-01-09T04:11:00.731Z,1004.80
2019-01-09T04:12:00.695Z,1004.70
2019-01-09T04:13:00.658Z,1004.71
2019-01-09T04:14:00.626Z,1004.79
2019-01-09T04:15:00.733Z,1004.77
2019-01-09T04:16:00.555Z,1004.71
2019-01-09T04:17:00.523Z,1004.75
2019-01-09T04:18:00.479Z,1004.76
2019-01-09T04:19:00.448Z,1004.82
2019-01-09T04:20:00.408Z,1004.82
2019-01-09T04:21:00.371Z,1004.82
2019-01-09T04:22:00.336Z,1004.85
2019-01-09T04:23:00.298Z,1004.95
2019-01-09T04:24:00.263Z,1004.89
2019-01-09T04:25:00.242Z,1004.93
2019-01-09T04:26:00.192Z,1004.93
2019-01-09T04:27:00.156Z,1004.96
2019-01-09T04:28:00.119Z,1005.02
2019-01-09T04:29:00.085Z,1004.98
2019-01-09T04:30:00.254Z,1005.05
2019-01-09T04:31:00.011Z,1005.07
2019-01-09T04:31:59.978Z,1005.12
2019-01-09T04:32:59.943Z,1005.21
2019-01-09T04:33:59.906Z,1005.17
2019-01-09T04:34:59.869Z,1005.24
2019-01-09T04:35:59.884Z,1005.18
2019-01-09T04:36:59.797Z,1005.23
2019-01-09T04:37:59.761Z,1005.29
2019-01-09T04:38:59.725Z,1005.33
2019-01-09T04:39:59.687Z,1005.35
2019-01-09T04:40:59.652Z,1005.29
2019-01-09T04:41:59.626Z,1005.31
2019-01-09T04:42:59.580Z,1005.33
2019-01-09T04:43:59.544Z,1005.33
2019-01-09T04:44:59.509Z,1005.46
2019-01-09T04:45:59.473Z,1005.23
2019-01-09T04:46:59.436Z,1005.33
2019-01-09T04:47:59.400Z,1005.38
2019-01-09T04:48:59.363Z,1005.15
2019-01-09T04:49:59.345Z,1005.24
2019-01-09T04:50:59.303Z,1005.21
2019-01-09T04:51:59.255Z,1005.27
2019-01-09T04:52:59.219Z,1005.24
2019-01-09T04:53:59.488Z,1005.44
2019-01-09T04:54:59.147Z,1005.32
2019-01-09T04:55:59.112Z,1005.22
2019-01-09T04:56:59.073Z,1005.31
2019-01-09T04:57:59.038Z,1005.34
2019-01-09T04:58:59.000Z,1005.31
2019-01-09T04:59:58.963Z,1005.23
2019-01-09T05:00:58.929Z,1005.21
2019-01-09T05:01:58.891Z,1005.21
2019-01-09T05:02:58.855Z,1005.20
2019-01-09T05:03:58.820Z,1005.18
2019-01-09T05:04:58.783Z,1005.19
2019-01-09T05:05:58.746Z,1005.19
2019-01-09T05:07:00.661Z,1005.29
2019-01-09T05:07:58.672Z,1005.24
2019-01-09T05:08:58.637Z,1005.18
2019-01-09T05:09:58.602Z,1005.26
2019-01-09T05:10:58.564Z,1005.35
2019-01-09T05:11:58.529Z,1005.33
2019-01-09T05:12:58.491Z,1005.36
2019-01-09T05:13:58.456Z,1005.35
2019-01-09T05:14:58.418Z,1005.33
2019-01-09T05:15:58.384Z,1005.38
2019-01-09T05:16:58.345Z,1005.39
2019-01-09T05:17:58.465Z,1005.31
2019-01-09T05:18:58.275Z,1005.49
2019-01-09T05:19:58.337Z,1005.39
2019-01-09T05:20:58.200Z,1005.42
2019-01-09T05:21:58.167Z,1005.46
2019-01-09T05:22:58.125Z,1005.51
2019-01-09T05:23:58.091Z,1005.56
2019-01-09T05:24:58.061Z,1005.60
2019-01-09T05:25:58.022Z,1005.52
2019-01-09T05:26:57.981Z,1005.56
2019-01-09T05:27:57.943Z,1005.55
2019-01-09T05:28:57.908Z,1005.55
2019-01-09T05:29:57.901Z,1005.59
2019-01-09T05:31:07.183Z,1005.62
2019-01-09T05:31:57.798Z,1005.58
2019-01-09T05:32:57.762Z,1005.62
2019-01-09T05:33:57.726Z,1005.61
2019-01-09T05:34:57.690Z,1005.64
2019-01-09T05:35:57.655Z,1005.69
2019-01-09T05:36:57.876Z,1005.67
2019-01-09T05:37:57.580Z,1005.75
2019-01-09T05:38:57.546Z,1005.70
2019-01-09T05:39:57.509Z,1005.72
2019-01-09T05:40:57.472Z,1005.73
2019-01-09T05:41:57.438Z,1005.73
2019-01-09T05:42:57.399Z,1005.75
2019-01-09T05:43:57.361Z,1005.74
2019-01-09T05:44:57.858Z,1005.71
2019-01-09T05:45:57.289Z,1005.74
2019-01-09T05:46:57.253Z,1005.69
2019-01-09T05:47:57.217Z,1005.72
2019-01-09T05:48:57.181Z,1005.79
2019-01-09T05:49:57.147Z,1005.79
2019-01-09T05:50:57.108Z,1005.81
2019-01-09T05:51:57.071Z,1005.81
2019-01-09T05:52:57.035Z,1005.81
2019-01-09T05:53:57.000Z,1005.87
2019-01-09T05:54:56.962Z,1005.87
2019-01-09T05:55:56.929Z,1005.87
2019-01-09T05:56:56.889Z,1005.86
2019-01-09T05:57:56.893Z,1005.80
2019-01-09T05:58:56.816Z,1005.91
2019-01-09T05:59:56.780Z,1005.81
2019-01-09T06:00:56.748Z,1005.83
2019-01-09T06:01:56.709Z,1005.90
2019-01-09T06:02:56.673Z,1005.88
2019-01-09T06:03:56.637Z,1005.93
2019-01-09T06:04:56.601Z,1005.96
2019-01-09T06:05:56.567Z,1005.96
2019-01-09T06:06:56.530Z,1006.00
2019-01-09T06:07:56.495Z,1005.99
2019-01-09T06:08:56.456Z,1006.01
2019-01-09T06:09:56.421Z,1006.05
2019-01-09T06:10:56.384Z,1006.05
2019-01-09T06:11:56.347Z,1006.01
2019-01-09T06:12:56.310Z,1006.08
2019-01-09T06:13:56.274Z,1006.06
2019-01-09T06:14:56.239Z,1005.99
2019-01-09T06:15:56.203Z,1006.05
2019-01-09T06:16:56.166Z,1006.10
2019-01-09T06:17:56.131Z,1006.06
2019-01-09T06:18:56.096Z,1006.11
2019-01-09T06:19:56.059Z,1006.11
2019-01-09T06:20:56.021Z,1006.21
2019-01-09T06:21:55.985Z,1006.15
2019-01-09T06:22:55.950Z,1006.24
2019-01-09T06:23:55.912Z,1006.14
2019-01-09T06:24:55.877Z,1006.10
2019-01-09T06:25:55.841Z,1006.16
2019-01-09T06:26:55.803Z,1006.21
2019-01-09T06:27:55.766Z,1006.21
2019-01-09T06:28:55.733Z,1006.22
2019-01-09T06:29:55.694Z,1006.25
2019-01-09T06:30:55.659Z,1006.24
2019-01-09T06:31:55.622Z,1006.34
2019-01-09T06:32:55.587Z,1006.31
2019-01-09T06:33:55.551Z,1006.32
2019-01-09T06:34:55.515Z,1006.33
2019-01-09T06:35:55.513Z,1006.37
2019-01-09T06:36:55.441Z,1006.39
2019-01-09T06:37:55.406Z,1006.38
2019-01-09T06:38:55.369Z,1006.38
2019-01-09T06:39:55.333Z,1006.34
2019-01-09T06:40:55.296Z,1006.42
2019-01-09T06:41:55.259Z,1006.48
2019-01-09T06:42:55.222Z,1006.52
2019-01-09T06:43:55.188Z,1006.53
2019-01-09T06:44:55.152Z,1006.56
2019-01-09T06:45:55.116Z,1006.56
2019-01-09T06:46:55.079Z,1006.56
2019-01-09T06:47:55.042Z,1006.62
2019-01-09T06:48:55.006Z,1006.65
2019-01-09T06:49:54.972Z,1006.63
2019-01-09T06:50:54.935Z,1006.66
2019-01-09T06:51:54.897Z,1006.65
2019-01-09T06:52:54.862Z,1006.73
2019-01-09T06:53:54.867Z,1006.73
2019-01-09T06:54:54.790Z,1006.71
2019-01-09T06:55:54.779Z,1006.82
2019-01-09T06:56:54.717Z,1006.77
2019-01-09T06:57:54.680Z,1006.78
2019-01-09T06:58:54.645Z,1006.90
2019-01-09T06:59:54.608Z,1006.81
2019-01-09T07:00:54.572Z,1006.84
2019-01-09T07:01:54.536Z,1006.92
2019-01-09T07:02:54.498Z,1006.80
2019-01-09T07:03:54.465Z,1006.85
2019-01-09T07:04:54.427Z,1006.87
2019-01-09T07:05:54.391Z,1006.93
2019-01-09T07:06:54.353Z,1006.88
2019-01-09T07:07:54.321Z,1006.87
2019-01-09T07:08:54.283Z,1006.98
2019-01-09T07:09:54.245Z,1006.93
2019-01-09T07:10:54.208Z,1006.98
2019-01-09T07:11:54.175Z,1007.01
2019-01-09T07:12:54.136Z,1007.03
2019-01-09T07:13:54.100Z,1006.95
2019-01-09T07:14:54.063Z,1007.03
2019-01-09T07:15:54.027Z,1007.01
2019-01-09T07:16:53.991Z,1007.01
2019-01-09T07:17:53.957Z,1007.07
2019-01-09T07:18:53.917Z,1007.03
2019-01-09T07:19:53.884Z,1007.05
2019-01-09T07:20:53.845Z,1007.06
2019-01-09T07:21:53.810Z,1007.08
2019-01-09T07:22:53.772Z,1007.09
2019-01-09T07:23:53.740Z,1007.09
2019-01-09T07:24:53.702Z,1007.11
2019-01-09T07:25:53.669Z,1007.11
2019-01-09T07:26:53.627Z,1007.18
2019-01-09T07:27:53.590Z,1007.14
2019-01-09T07:28:53.555Z,1007.13
2019-01-09T07:29:53.520Z,1007.12
2019-01-09T07:30:53.634Z,1007.18
2019-01-09T07:31:53.448Z,1007.18
2019-01-09T07:32:53.410Z,1007.20
2019-01-09T07:33:53.376Z,1007.25
2019-01-09T07:34:53.338Z,1007.15
2019-01-09T07:35:53.301Z,1007.21
2019-01-09T07:36:53.266Z,1007.26
2019-01-09T07:37:53.230Z,1007.24
2019-01-09T07:38:53.192Z,1007.33
2019-01-09T07:39:53.158Z,1007.30
2019-01-09T07:40:53.121Z,1007.33
2019-01-09T07:41:53.085Z,1007.31
2019-01-09T07:42:53.051Z,1007.31
2019-01-09T07:43:53.011Z,1007.31
2019-01-09T07:44:52.979Z,1007.33
2019-01-09T07:45:52.940Z,1007.41
2019-01-09T07:46:52.903Z,1007.43
2019-01-09T07:47:52.871Z,1007.44
2019-01-09T07:48:52.833Z,1007.49
2019-01-09T07:49:52.797Z,1007.44
2019-01-09T07:50:52.760Z,1007.48
2019-01-09T07:51:52.723Z,1007.45
2019-01-09T07:52:52.758Z,1007.51
2019-01-09T07:53:52.652Z,1007.51
2019-01-09T07:54:52.614Z,1007.50
2019-01-09T07:55:52.579Z,1007.41
2019-01-09T07:56:52.541Z,1007.47
2019-01-09T07:57:52.506Z,1007.47
2019-01-09T07:58:52.469Z,1007.47
2019-01-09T07:59:52.433Z,1007.52
2019-01-09T08:00:52.398Z,1007.62
2019-01-09T08:01:52.362Z,1007.52
2019-01-09T08:02:52.325Z,1007.53
2019-01-09T08:03:52.289Z,1007.53
2019-01-09T08:04:52.256Z,1007.56
2019-01-09T08:05:52.217Z,1007.66
2019-01-09T08:06:52.180Z,1007.63
2019-01-09T08:07:54.221Z,1007.67
2019-01-09T08:08:52.110Z,1007.67
2019-01-09T08:09:52.072Z,1007.70
2019-01-09T08:10:52.036Z,1007.70
2019-01-09T08:11:52.000Z,1007.73
2019-01-09T08:12:51.964Z,1007.75
2019-01-09T08:13:51.927Z,1007.79
2019-01-09T08:14:51.892Z,1007.79
2019-01-09T08:15:51.855Z,1007.80
2019-01-09T08:16:51.819Z,1007.88
2019-01-09T08:17:51.783Z,1007.84
2019-01-09T08:18:51.747Z,1007.93
2019-01-09T08:19:51.766Z,1007.92
2019-01-09T08:20:51.675Z,1007.94
2019-01-09T08:21:51.640Z,1007.94
2019-01-09T08:22:51.602Z,1007.94
2019-01-09T08:23:51.567Z,1008.00
2019-01-09T08:24:51.531Z,1008.00
2019-01-09T08:25:51.500Z,1008.05
2019-01-09T08:26:51.458Z,1008.06
2019-01-09T08:27:51.424Z,1008.09
2019-01-09T08:28:51.388Z,1007.99
2019-01-09T08:29:51.353Z,1008.05
2019-01-09T08:30:51.313Z,1008.11
2019-01-09T08:31:51.279Z,1008.15
2019-01-09T08:32:51.246Z,1008.11
2019-01-09T08:33:51.208Z,1008.13
2019-01-09T08:34:51.170Z,1008.26
2019-01-09T08:35:51.138Z,1008.25
2019-01-09T08:36:51.099Z,1008.21
2019-01-09T08:37:51.062Z,1008.25
2019-01-09T08:38:51.025Z,1008.26
2019-01-09T08:39:50.988Z,1008.35
2019-01-09T08:40:50.954Z,1008.26
2019-01-09T08:41:50.919Z,1008.30
2019-01-09T08:42:50.881Z,1008.24
2019-01-09T08:43:50.845Z,1008.33
2019-01-09T08:44:50.809Z,1008.33
2019-01-09T08:45:50.774Z,1008.29
2019-01-09T08:46:50.738Z,1008.44
2019-01-09T08:47:50.702Z,1008.47
2019-01-09T08:48:50.667Z,1008.40
2019-01-09T08:49:50.630Z,1008.46
2019-01-09T08:50:50.596Z,1008.46
2019-01-09T08:51:50.557Z,1008.46
2019-01-09T08:52:50.522Z,1008.47
2019-01-09T08:53:50.487Z,1008.51
2019-01-09T08:54:50.453Z,1008.52
2019-01-09T08:55:50.414Z,1008.46
2019-01-09T08:56:50.377Z,1008.54
2019-01-09T08:57:50.343Z,1008.56
2019-01-09T08:58:50.307Z,1008.56
2019-01-09T08:59:50.269Z,1008.56
2019-01-09T09:00:50.234Z,1008.57
2019-01-09T09:01:50.203Z,1008.59
2019-01-09T09:02:50.161Z,1008.61
2019-01-09T09:03:50.125Z,1008.62
2019-01-09T09:04:50.091Z,1008.64
2019-01-09T09:05:50.054Z,1008.73
2019-01-09T09:06:50.018Z,1008.64
2019-01-09T09:07:49.983Z,1008.73
2019-01-09T09:08:50.043Z,1008.76
2019-01-09T09:09:49.911Z,1008.73
2019-01-09T09:10:49.874Z,1008.77
2019-01-09T09:11:49.875Z,1008.78
2019-01-09T09:12:49.804Z,1008.80
2019-01-09T09:13:49.768Z,1008.84
2019-01-09T09:14:49.732Z,1008.84
2019-01-09T09:15:49.695Z,1008.88
2019-01-09T09:16:49.658Z,1008.90
2019-01-09T09:17:49.623Z,1008.89
2019-01-09T09:18:49.586Z,1008.89
2019-01-09T09:19:49.549Z,1008.94
2019-01-09T09:20:49.514Z,1008.94
2019-01-09T09:21:49.478Z,1008.94
2019-01-09T09:22:49.442Z,1008.93
2019-01-09T09:23:49.406Z,1008.98
2019-01-09T09:24:49.370Z,1009.01
2019-01-09T09:25:49.334Z,1009.09
2019-01-09T09:26:49.298Z,1009.02
2019-01-09T09:27:49.263Z,1009.01
2019-01-09T09:28:49.227Z,1009.09
2019-01-09T09:29:49.190Z,1009.06
2019-01-09T09:30:49.155Z,1009.06
2019-01-09T09:31:49.118Z,1009.06
2019-01-09T09:32:49.081Z,1009.12
2019-01-09T09:33:49.047Z,1009.10
2019-01-09T09:34:49.014Z,1009.13
2019-01-09T09:35:48.974Z,1009.21
2019-01-09T09:36:48.939Z,1009.19
2019-01-09T09:37:48.904Z,1009.18
2019-01-09T09:38:48.868Z,1009.21
2019-01-09T09:39:48.830Z,1009.18
2019-01-09T09:40:48.795Z,1009.23
2019-01-09T09:41:48.759Z,1009.23
2019-01-09T09:42:48.723Z,1009.27
2019-01-09T09:43:48.687Z,1009.32
2019-01-09T09:44:48.652Z,1009.30
2019-01-09T09:45:48.619Z,1009.30
2019-01-09T09:46:48.578Z,1009.32
2019-01-09T09:47:48.547Z,1009.28
2019-01-09T09:48:48.507Z,1009.36
2019-01-09T09:49:48.472Z,1009.39
2019-01-09T09:50:48.435Z,1009.42
2019-01-09T09:51:48.479Z,1009.38
2019-01-09T09:52:48.365Z,1009.40
2019-01-09T09:53:48.329Z,1009.36
2019-01-09T09:54:48.292Z,1009.44
2019-01-09T09:55:48.255Z,1009.42
2019-01-09T09:56:48.221Z,1009.46
2019-01-09T09:57:48.184Z,1009.46
2019-01-09T09:58:48.149Z,1009.51
2019-01-09T09:59:48.111Z,1009.45
2019-01-09T10:00:48.076Z,1009.56
2019-01-09T10:01:48.042Z,1009.51
2019-01-09T10:02:48.005Z,1009.56
2019-01-09T10:03:47.969Z,1009.61
2019-01-09T10:04:47.939Z,1009.54
2019-01-09T10:05:47.898Z,1009.55
2019-01-09T10:06:47.860Z,1009.61
2019-01-09T10:07:47.826Z,1009.65
2019-01-09T10:08:47.790Z,1009.60
2019-01-09T10:09:47.754Z,1009.62
2019-01-09T10:10:47.718Z,1009.61
2019-01-09T10:11:47.682Z,1009.65
2019-01-09T10:12:47.646Z,1009.60
2019-01-09T10:13:47.611Z,1009.71
2019-01-09T10:14:47.574Z,1009.65
2019-01-09T10:15:48.737Z,1009.66
2019-01-09T10:16:47.505Z,1009.64
2019-01-09T10:17:47.468Z,1009.70
2019-01-09T10:18:47.432Z,1009.80
2019-01-09T10:19:47.398Z,1009.80
2019-01-09T10:20:47.361Z,1009.73
2019-01-09T10:21:47.326Z,1009.76
2019-01-09T10:22:47.290Z,1009.75
2019-01-09T10:23:47.254Z,1009.75
2019-01-09T10:24:47.218Z,1009.79
2019-01-09T10:25:47.181Z,1009.80
2019-01-09T10:26:47.145Z,1009.87
2019-01-09T10:27:47.116Z,1009.84
2019-01-09T10:28:47.076Z,1009.82
2019-01-09T10:29:47.038Z,1009.85
2019-01-09T10:30:47.002Z,1009.84
2019-01-09T10:31:46.967Z,1009.84
2019-01-09T10:32:46.931Z,1009.81
2019-01-09T10:33:46.899Z,1009.87
2019-01-09T10:34:46.858Z,1009.97
2019-01-09T10:35:46.823Z,1009.90
2019-01-09T10:36:46.790Z,1009.98
2019-01-09T10:37:46.753Z,1009.97
2019-01-09T10:38:46.717Z,1009.99
2019-01-09T10:39:46.681Z,1010.04
2019-01-09T10:40:46.648Z,1009.98
2019-01-09T10:41:46.610Z,1009.99
2019-01-09T10:42:46.575Z,1009.99
2019-01-09T10:43:46.540Z,1010.03
2019-01-09T10:44:46.503Z,1010.06
2019-01-09T10:45:46.468Z,1010.04
2019-01-09T10:46:46.437Z,1010.03
2019-01-09T10:47:46.397Z,1010.01
2019-01-09T10:48:46.361Z,1010.02
2019-01-09T10:49:46.327Z,1010.07
2019-01-09T10:50:46.385Z,1010.07
2019-01-09T10:51:46.255Z,1010.06
2019-01-09T10:52:46.218Z,1010.07
2019-01-09T10:53:46.184Z,1010.09
2019-01-09T10:54:46.150Z,1010.12
2019-01-09T10:55:46.113Z,1010.12
2019-01-09T10:56:46.076Z,1010.07
2019-01-09T10:57:46.041Z,1010.08
2019-01-09T10:58:46.005Z,1010.17
2019-01-09T10:59:45.975Z,1010.14
2019-01-09T11:00:45.934Z,1010.10
2019-01-09T11:01:45.899Z,1010.20
2019-01-09T11:02:45.863Z,1010.18
2019-01-09T11:03:45.827Z,1010.17
2019-01-09T11:04:45.794Z,1010.17
2019-01-09T11:05:45.758Z,1010.18
2019-01-09T11:06:45.722Z,1010.22
2019-01-09T11:07:45.686Z,1010.18
2019-01-09T11:08:47.017Z,1010.14
2019-01-09T11:09:45.615Z,1010.19
2019-01-09T11:10:45.578Z,1010.22
2019-01-09T11:11:45.544Z,1010.21
2019-01-09T11:12:45.512Z,1010.24
2019-01-09T11:13:45.473Z,1010.21
2019-01-09T11:14:45.439Z,1010.24
2019-01-09T11:15:45.402Z,1010.29
2019-01-09T11:16:45.448Z,1010.24
2019-01-09T11:17:45.340Z,1010.27
2019-01-09T11:18:45.385Z,1010.34
2019-01-09T11:19:45.260Z,1010.32
2019-01-09T11:20:45.225Z,1010.29
2019-01-09T11:21:45.188Z,1010.24
2019-01-09T11:22:45.153Z,1010.28
2019-01-09T11:23:45.119Z,1010.35
2019-01-09T11:24:45.119Z,1010.31
2019-01-09T11:25:45.047Z,1010.31
2019-01-09T11:26:45.011Z,1010.33
2019-01-09T11:27:44.976Z,1010.36
2019-01-09T11:28:44.940Z,1010.32
2019-01-09T11:29:44.909Z,1010.40
2019-01-09T11:30:44.872Z,1010.35
2019-01-09T11:31:44.833Z,1010.34
2019-01-09T11:32:44.798Z,1010.34
2019-01-09T11:33:44.762Z,1010.36
2019-01-09T11:34:44.727Z,1010.37
2019-01-09T11:35:44.691Z,1010.37
2019-01-09T11:36:44.656Z,1010.37
2019-01-09T11:37:44.622Z,1010.46
2019-01-09T11:38:44.583Z,1010.35
2019-01-09T11:39:44.550Z,1010.41
2019-01-09T11:40:44.514Z,1010.43
2019-01-09T11:41:44.479Z,1010.38
2019-01-09T11:42:44.443Z,1010.42
2019-01-09T11:43:44.407Z,1010.38
2019-01-09T11:44:44.371Z,1010.42
2019-01-09T11:45:44.337Z,1010.45
2019-01-09T11:46:44.300Z,1010.43
2019-01-09T11:47:44.264Z,1010.47
2019-01-09T11:48:44.230Z,1010.46
2019-01-09T11:49:44.194Z,1010.45
2019-01-09T11:50:44.158Z,1010.47
2019-01-09T11:51:44.122Z,1010.50
2019-01-09T11:52:44.088Z,1010.50
2019-01-09T11:53:44.052Z,1010.50
2019-01-09T11:54:44.017Z,1010.42
2019-01-09T11:55:43.981Z,1010.52
2019-01-09T11:56:43.944Z,1010.43
2019-01-09T11:57:43.912Z,1010.49
2019-01-09T11:58:43.873Z,1010.49
2019-01-09T11:59:43.839Z,1010.47
2019-01-09T12:00:43.803Z,1010.46
2019-01-09T12:01:43.768Z,1010.51
2019-01-09T12:02:43.731Z,1010.55
2019-01-09T12:03:43.701Z,1010.51
2019-01-09T12:04:43.662Z,1010.56